sensor_id;sensor_type;location;lat;lon;timestamp;temperature;humidity
55642;DHT22;41509;53.108;6.100;2024-01-10T00:01:34;-3.40;99.90
55642;DHT22;41509;53.108;6.100;2024-01-10T00:04:00;-3.40;99.90
55642;DHT22;41509;53.108;6.100;2024-01-10T00:06:26;-3.40;99.90
55642;DHT22;41509;53.108;6.100;2024-01-10T00:08:51;-3.40;99.90
55642;DHT22;41509;53.108;6.100;2024-01-10T00:11:17;-3.40;99.90
55642;DHT22;41509;53.108;6.100;2024-01-10T00:13:43;-3.40;99.90
55642;DHT22;41509;53.108;6.100;2024-01-10T00:16:11;-3.40;99.90
55642;DHT22;41509;53.108;6.100;2024-01-10T00:18:37;-3.40;99.90
55642;DHT22;41509;53.108;6.100;2024-01-10T00:21:03;-3.40;99.90
55642;DHT22;41509;53.108;6.100;2024-01-10T00:23:31;-3.40;99.90
55642;DHT22;41509;53.108;6.100;2024-01-10T00:25:57;-3.40;99.90
55642;DHT22;41509;53.108;6.100;2024-01-10T00:28:22;-3.50;99.90
55642;DHT22;41509;53.108;6.100;2024-01-10T00:30:48;-3.50;99.90
55642;DHT22;41509;53.108;6.100;2024-01-10T00:33:14;-3.40;99.90
55642;DHT22;41509;53.108;6.100;2024-01-10T00:35:39;-3.50;99.90
55642;DHT22;41509;53.108;6.100;2024-01-10T00:38:05;-3.40;99.90
55642;DHT22;41509;53.108;6.100;2024-01-10T00:40:31;-3.40;99.90
55642;DHT22;41509;53.108;6.100;2024-01-10T00:42:57;-3.40;99.90
55642;DHT22;41509;53.108;6.100;2024-01-10T00:45:22;-3.40;99.90
55642;DHT22;41509;53.108;6.100;2024-01-10T00:47:51;-3.50;99.90
55642;DHT22;41509;53.108;6.100;2024-01-10T00:50:17;-3.50;99.90
55642;DHT22;41509;53.108;6.100;2024-01-10T00:52:46;-3.50;99.90
55642;DHT22;41509;53.108;6.100;2024-01-10T00:55:12;-3.50;99.90
55642;DHT22;41509;53.108;6.100;2024-01-10T00:57:38;-3.50;99.90
55642;DHT22;41509;53.108;6.100;2024-01-10T01:00:06;-3.50;99.90
55642;DHT22;41509;53.108;6.100;2024-01-10T01:02:34;-3.50;99.90
55642;DHT22;41509;53.108;6.100;2024-01-10T01:05:00;-3.50;99.90
55642;DHT22;41509;53.108;6.100;2024-01-10T01:07:26;-3.50;99.90
55642;DHT22;41509;53.108;6.100;2024-01-10T01:09:51;-3.50;99.90
55642;DHT22;41509;53.108;6.100;2024-01-10T01:12:17;-3.60;99.90
55642;DHT22;41509;53.108;6.100;2024-01-10T01:14:43;-3.60;99.90
55642;DHT22;41509;53.108;6.100;2024-01-10T01:17:09;-3.60;99.90
55642;DHT22;41509;53.108;6.100;2024-01-10T01:19:35;-3.60;99.90
55642;DHT22;41509;53.108;6.100;2024-01-10T01:22:00;-3.60;99.90
55642;DHT22;41509;53.108;6.100;2024-01-10T01:24:28;-3.60;99.90
55642;DHT22;41509;53.108;6.100;2024-01-10T01:26:54;-3.60;99.90
55642;DHT22;41509;53.108;6.100;2024-01-10T01:29:20;-3.70;99.90
55642;DHT22;41509;53.108;6.100;2024-01-10T01:31:46;-3.70;99.90
55642;DHT22;41509;53.108;6.100;2024-01-10T01:34:12;-3.70;99.90
55642;DHT22;41509;53.108;6.100;2024-01-10T01:36:38;-3.70;99.90
55642;DHT22;41509;53.108;6.100;2024-01-10T01:39:03;-3.70;99.90
55642;DHT22;41509;53.108;6.100;2024-01-10T01:41:32;-3.80;99.90
55642;DHT22;41509;53.108;6.100;2024-01-10T01:43:57;-3.70;99.90
55642;DHT22;41509;53.108;6.100;2024-01-10T01:46:23;-3.80;99.90
55642;DHT22;41509;53.108;6.100;2024-01-10T01:48:49;-3.80;99.90
55642;DHT22;41509;53.108;6.100;2024-01-10T01:51:20;-3.80;99.90
55642;DHT22;41509;53.108;6.100;2024-01-10T01:53:48;-3.70;99.90
55642;DHT22;41509;53.108;6.100;2024-01-10T01:56:14;-3.70;99.90
55642;DHT22;41509;53.108;6.100;2024-01-10T01:58:43;-3.70;99.90
55642;DHT22;41509;53.108;6.100;2024-01-10T02:01:09;-3.80;99.90
55642;DHT22;41509;53.108;6.100;2024-01-10T02:03:37;-3.70;99.90
55642;DHT22;41509;53.108;6.100;2024-01-10T02:06:05;-3.70;99.90
55642;DHT22;41509;53.108;6.100;2024-01-10T02:08:35;-3.70;99.90
55642;DHT22;41509;53.108;6.100;2024-01-10T02:11:01;-3.70;99.90
55642;DHT22;41509;53.108;6.100;2024-01-10T02:13:28;-3.70;99.90
55642;DHT22;41509;53.108;6.100;2024-01-10T02:15:54;-3.70;99.90
55642;DHT22;41509;53.108;6.100;2024-01-10T02:18:20;-3.70;99.90
55642;DHT22;41509;53.108;6.100;2024-01-10T02:20:46;-3.70;99.90
55642;DHT22;41509;53.108;6.100;2024-01-10T02:23:12;-3.70;99.90
55642;DHT22;41509;53.108;6.100;2024-01-10T02:25:38;-3.70;99.90
55642;DHT22;41509;53.108;6.100;2024-01-10T02:28:08;-3.70;99.90
55642;DHT22;41509;53.108;6.100;2024-01-10T02:30:37;-3.60;99.90
55642;DHT22;41509;53.108;6.100;2024-01-10T02:33:03;-3.60;99.90
55642;DHT22;41509;53.108;6.100;2024-01-10T02:35:29;-3.60;99.90
55642;DHT22;41509;53.108;6.100;2024-01-10T02:37:58;-3.60;99.90
55642;DHT22;41509;53.108;6.100;2024-01-10T02:40:24;-3.60;99.90
55642;DHT22;41509;53.108;6.100;2024-01-10T02:42:49;-3.60;99.90
55642;DHT22;41509;53.108;6.100;2024-01-10T02:45:17;-3.50;99.90
55642;DHT22;41509;53.108;6.100;2024-01-10T02:47:48;-3.50;99.90
55642;DHT22;41509;53.108;6.100;2024-01-10T02:50:13;-3.60;99.90
55642;DHT22;41509;53.108;6.100;2024-01-10T02:52:42;-3.40;99.90
55642;DHT22;41509;53.108;6.100;2024-01-10T02:55:10;-3.50;99.90
55642;DHT22;41509;53.108;6.100;2024-01-10T02:57:38;-3.50;99.90
55642;DHT22;41509;53.108;6.100;2024-01-10T03:00:05;-3.50;99.90
55642;DHT22;41509;53.108;6.100;2024-01-10T03:02:31;-3.50;99.90
55642;DHT22;41509;53.108;6.100;2024-01-10T03:04:56;-3.50;99.90
55642;DHT22;41509;53.108;6.100;2024-01-10T03:07:22;-3.40;99.90
55642;DHT22;41509;53.108;6.100;2024-01-10T03:09:53;-3.50;99.90
55642;DHT22;41509;53.108;6.100;2024-01-10T03:12:19;-3.50;99.90
55642;DHT22;41509;53.108;6.100;2024-01-10T03:14:44;-3.50;99.90
55642;DHT22;41509;53.108;6.100;2024-01-10T03:17:10;-3.50;99.90
55642;DHT22;41509;53.108;6.100;2024-01-10T03:19:36;-3.50;99.90
55642;DHT22;41509;53.108;6.100;2024-01-10T03:22:07;-3.50;99.90
55642;DHT22;41509;53.108;6.100;2024-01-10T03:24:33;-3.50;99.90
55642;DHT22;41509;53.108;6.100;2024-01-10T03:26:59;-3.50;99.90
55642;DHT22;41509;53.108;6.100;2024-01-10T03:29:25;-3.50;99.90
55642;DHT22;41509;53.108;6.100;2024-01-10T03:31:51;-3.50;99.90
55642;DHT22;41509;53.108;6.100;2024-01-10T03:34:16;-3.50;99.90
55642;DHT22;41509;53.108;6.100;2024-01-10T03:36:43;-3.50;99.90
55642;DHT22;41509;53.108;6.100;2024-01-10T03:39:09;-3.50;99.90
55642;DHT22;41509;53.108;6.100;2024-01-10T03:41:35;-3.60;99.90
55642;DHT22;41509;53.108;6.100;2024-01-10T03:44:01;-3.60;99.90
55642;DHT22;41509;53.108;6.100;2024-01-10T03:46:26;-3.60;99.90
55642;DHT22;41509;53.108;6.100;2024-01-10T03:48:52;-3.60;99.90
55642;DHT22;41509;53.108;6.100;2024-01-10T03:51:18;-3.60;99.90
55642;DHT22;41509;53.108;6.100;2024-01-10T03:53:45;-3.60;99.90
55642;DHT22;41509;53.108;6.100;2024-01-10T03:56:12;-3.60;99.90
55642;DHT22;41509;53.108;6.100;2024-01-10T03:58:37;-3.60;99.90
55642;DHT22;41509;53.108;6.100;2024-01-10T04:01:09;-3.60;99.90
55642;DHT22;41509;53.108;6.100;2024-01-10T04:03:35;-3.60;99.90
55642;DHT22;41509;53.108;6.100;2024-01-10T04:06:01;-3.60;99.90
55642;DHT22;41509;53.108;6.100;2024-01-10T04:08:27;-3.60;99.90
55642;DHT22;41509;53.108;6.100;2024-01-10T04:10:53;-3.70;99.90
55642;DHT22;41509;53.108;6.100;2024-01-10T04:13:19;-3.70;99.90
55642;DHT22;41509;53.108;6.100;2024-01-10T04:15:44;-3.70;99.90
55642;DHT22;41509;53.108;6.100;2024-01-10T04:18:10;-3.70;99.90
55642;DHT22;41509;53.108;6.100;2024-01-10T04:20:35;-3.70;99.90
55642;DHT22;41509;53.108;6.100;2024-01-10T04:23:02;-3.70;99.90
55642;DHT22;41509;53.108;6.100;2024-01-10T04:25:27;-3.70;99.90
55642;DHT22;41509;53.108;6.100;2024-01-10T04:27:53;-3.70;99.90
55642;DHT22;41509;53.108;6.100;2024-01-10T04:30:18;-3.70;99.90
55642;DHT22;41509;53.108;6.100;2024-01-10T04:32:44;-3.70;99.90
55642;DHT22;41509;53.108;6.100;2024-01-10T04:35:10;-3.70;99.90
55642;DHT22;41509;53.108;6.100;2024-01-10T04:37:35;-3.70;99.90
55642;DHT22;41509;53.108;6.100;2024-01-10T04:40:01;-3.80;99.90
55642;DHT22;41509;53.108;6.100;2024-01-10T04:42:26;-3.80;99.90
55642;DHT22;41509;53.108;6.100;2024-01-10T04:44:52;-3.80;99.90
55642;DHT22;41509;53.108;6.100;2024-01-10T04:47:20;-3.80;99.90
55642;DHT22;41509;53.108;6.100;2024-01-10T04:49:46;-3.80;99.90
55642;DHT22;41509;53.108;6.100;2024-01-10T04:52:14;-3.80;99.90
55642;DHT22;41509;53.108;6.100;2024-01-10T04:54:39;-3.80;99.90
55642;DHT22;41509;53.108;6.100;2024-01-10T04:57:05;-3.80;99.90
55642;DHT22;41509;53.108;6.100;2024-01-10T04:59:30;-3.80;99.90
55642;DHT22;41509;53.108;6.100;2024-01-10T05:01:56;-3.70;99.90
55642;DHT22;41509;53.108;6.100;2024-01-10T05:04:22;-3.80;99.90
55642;DHT22;41509;53.108;6.100;2024-01-10T05:06:47;-3.80;99.90
55642;DHT22;41509;53.108;6.100;2024-01-10T05:09:13;-3.80;99.90
55642;DHT22;41509;53.108;6.100;2024-01-10T05:11:39;-3.80;99.90
55642;DHT22;41509;53.108;6.100;2024-01-10T05:14:05;-3.80;99.90
55642;DHT22;41509;53.108;6.100;2024-01-10T05:16:33;-3.80;99.90
55642;DHT22;41509;53.108;6.100;2024-01-10T05:19:00;-3.90;99.90
55642;DHT22;41509;53.108;6.100;2024-01-10T05:21:29;-3.80;99.90
55642;DHT22;41509;53.108;6.100;2024-01-10T05:23:55;-3.80;99.90
55642;DHT22;41509;53.108;6.100;2024-01-10T05:26:21;-3.90;99.90
55642;DHT22;41509;53.108;6.100;2024-01-10T05:28:49;-3.90;99.90
55642;DHT22;41509;53.108;6.100;2024-01-10T05:31:16;-3.80;99.90
55642;DHT22;41509;53.108;6.100;2024-01-10T05:33:41;-3.90;99.90
55642;DHT22;41509;53.108;6.100;2024-01-10T05:36:09;-3.90;99.90
55642;DHT22;41509;53.108;6.100;2024-01-10T05:38:37;-3.90;99.90
55642;DHT22;41509;53.108;6.100;2024-01-10T05:41:02;-3.90;99.90
55642;DHT22;41509;53.108;6.100;2024-01-10T05:43:28;-3.90;99.90
55642;DHT22;41509;53.108;6.100;2024-01-10T05:45:54;-3.90;99.90
55642;DHT22;41509;53.108;6.100;2024-01-10T05:48:19;-3.90;99.90
55642;DHT22;41509;53.108;6.100;2024-01-10T05:50:45;-3.90;99.90
55642;DHT22;41509;53.108;6.100;2024-01-10T05:53:13;-4.00;99.90
55642;DHT22;41509;53.108;6.100;2024-01-10T05:55:43;-4.00;99.90
55642;DHT22;41509;53.108;6.100;2024-01-10T05:58:10;-3.90;99.90
55642;DHT22;41509;53.108;6.100;2024-01-10T06:00:35;-4.00;99.90
55642;DHT22;41509;53.108;6.100;2024-01-10T06:03:01;-4.00;99.90
55642;DHT22;41509;53.108;6.100;2024-01-10T06:05:26;-4.00;99.90
55642;DHT22;41509;53.108;6.100;2024-01-10T06:07:52;-4.00;99.90
55642;DHT22;41509;53.108;6.100;2024-01-10T06:10:18;-4.00;99.90
55642;DHT22;41509;53.108;6.100;2024-01-10T06:12:43;-4.00;99.90
55642;DHT22;41509;53.108;6.100;2024-01-10T06:15:09;-4.00;99.90
55642;DHT22;41509;53.108;6.100;2024-01-10T06:17:35;-4.00;99.90
55642;DHT22;41509;53.108;6.100;2024-01-10T06:20:01;-4.00;99.90
55642;DHT22;41509;53.108;6.100;2024-01-10T06:22:28;-4.00;99.90
55642;DHT22;41509;53.108;6.100;2024-01-10T06:24:54;-4.00;99.90
55642;DHT22;41509;53.108;6.100;2024-01-10T06:27:19;-4.00;99.90
55642;DHT22;41509;53.108;6.100;2024-01-10T06:29:45;-4.00;99.90
55642;DHT22;41509;53.108;6.100;2024-01-10T06:32:11;-4.00;99.90
55642;DHT22;41509;53.108;6.100;2024-01-10T06:34:37;-4.00;99.90
55642;DHT22;41509;53.108;6.100;2024-01-10T06:37:02;-4.00;99.90
55642;DHT22;41509;53.108;6.100;2024-01-10T06:39:28;-4.00;99.90
55642;DHT22;41509;53.108;6.100;2024-01-10T06:41:54;-4.10;99.90
55642;DHT22;41509;53.108;6.100;2024-01-10T06:44:20;-4.00;99.90
55642;DHT22;41509;53.108;6.100;2024-01-10T06:46:46;-4.00;99.90
55642;DHT22;41509;53.108;6.100;2024-01-10T06:49:12;-4.00;99.90
55642;DHT22;41509;53.108;6.100;2024-01-10T06:51:38;-4.00;99.90
55642;DHT22;41509;53.108;6.100;2024-01-10T06:54:04;-4.00;99.90
55642;DHT22;41509;53.108;6.100;2024-01-10T06:56:33;-4.00;99.90
55642;DHT22;41509;53.108;6.100;2024-01-10T06:59:00;-4.00;99.90
55642;DHT22;41509;53.108;6.100;2024-01-10T07:01:26;-4.00;99.90
55642;DHT22;41509;53.108;6.100;2024-01-10T07:03:52;-4.00;99.90
55642;DHT22;41509;53.108;6.100;2024-01-10T07:06:27;-4.00;99.90
55642;DHT22;41509;53.108;6.100;2024-01-10T07:08:53;-4.00;99.90
55642;DHT22;41509;53.108;6.100;2024-01-10T07:11:22;-4.00;99.90
55642;DHT22;41509;53.108;6.100;2024-01-10T07:13:50;-4.00;99.90
55642;DHT22;41509;53.108;6.100;2024-01-10T07:16:15;-4.00;99.90
55642;DHT22;41509;53.108;6.100;2024-01-10T07:18:44;-4.00;99.90
55642;DHT22;41509;53.108;6.100;2024-01-10T07:21:11;-3.90;99.90
55642;DHT22;41509;53.108;6.100;2024-01-10T07:23:37;-3.90;99.90
55642;DHT22;41509;53.108;6.100;2024-01-10T07:26:08;-4.00;99.90
55642;DHT22;41509;53.108;6.100;2024-01-10T07:28:33;-3.90;99.90
55642;DHT22;41509;53.108;6.100;2024-01-10T07:30:59;-3.90;99.90
55642;DHT22;41509;53.108;6.100;2024-01-10T07:33:31;-3.90;99.90
55642;DHT22;41509;53.108;6.100;2024-01-10T07:36:01;-3.90;99.90
55642;DHT22;41509;53.108;6.100;2024-01-10T07:38:26;-3.90;99.90
55642;DHT22;41509;53.108;6.100;2024-01-10T07:40:52;-4.00;99.90
55642;DHT22;41509;53.108;6.100;2024-01-10T07:43:20;-4.00;99.90
55642;DHT22;41509;53.108;6.100;2024-01-10T07:45:46;-4.00;99.90
55642;DHT22;41509;53.108;6.100;2024-01-10T07:48:11;-4.00;99.90
55642;DHT22;41509;53.108;6.100;2024-01-10T07:50:37;-4.00;99.90
55642;DHT22;41509;53.108;6.100;2024-01-10T07:53:03;-4.00;99.90
55642;DHT22;41509;53.108;6.100;2024-01-10T07:55:28;-3.90;99.90
55642;DHT22;41509;53.108;6.100;2024-01-10T07:57:55;-3.90;99.90
55642;DHT22;41509;53.108;6.100;2024-01-10T08:00:20;-3.90;99.90
55642;DHT22;41509;53.108;6.100;2024-01-10T08:02:46;-4.00;99.90
55642;DHT22;41509;53.108;6.100;2024-01-10T08:05:12;-3.90;99.90
55642;DHT22;41509;53.108;6.100;2024-01-10T08:07:38;-3.90;99.90
55642;DHT22;41509;53.108;6.100;2024-01-10T08:10:09;-3.90;99.90
55642;DHT22;41509;53.108;6.100;2024-01-10T08:12:38;-3.90;99.90
55642;DHT22;41509;53.108;6.100;2024-01-10T08:15:04;-3.90;99.90
55642;DHT22;41509;53.108;6.100;2024-01-10T08:17:32;-3.70;99.90
55642;DHT22;41509;53.108;6.100;2024-01-10T08:19:58;-3.80;99.90
55642;DHT22;41509;53.108;6.100;2024-01-10T08:22:24;-3.80;99.90
55642;DHT22;41509;53.108;6.100;2024-01-10T08:24:49;-3.80;99.90
55642;DHT22;41509;53.108;6.100;2024-01-10T08:27:15;-3.80;99.90
55642;DHT22;41509;53.108;6.100;2024-01-10T08:29:42;-3.80;99.90
55642;DHT22;41509;53.108;6.100;2024-01-10T08:32:08;-3.70;99.90
55642;DHT22;41509;53.108;6.100;2024-01-10T08:34:33;-3.70;99.90
55642;DHT22;41509;53.108;6.100;2024-01-10T08:36:59;-3.70;99.90
55642;DHT22;41509;53.108;6.100;2024-01-10T08:39:25;-3.70;99.90
55642;DHT22;41509;53.108;6.100;2024-01-10T08:41:53;-3.70;99.90
55642;DHT22;41509;53.108;6.100;2024-01-10T08:44:19;-3.60;99.90
55642;DHT22;41509;53.108;6.100;2024-01-10T08:46:44;-3.60;99.90
55642;DHT22;41509;53.108;6.100;2024-01-10T08:49:11;-3.60;99.90
55642;DHT22;41509;53.108;6.100;2024-01-10T08:51:37;-3.60;99.90
55642;DHT22;41509;53.108;6.100;2024-01-10T08:54:02;-3.50;99.90
55642;DHT22;41509;53.108;6.100;2024-01-10T08:56:29;-3.50;99.90
55642;DHT22;41509;53.108;6.100;2024-01-10T08:58:54;-3.50;99.90
55642;DHT22;41509;53.108;6.100;2024-01-10T09:01:20;-3.40;99.90
55642;DHT22;41509;53.108;6.100;2024-01-10T09:03:46;-3.40;99.90
55642;DHT22;41509;53.108;6.100;2024-01-10T09:06:12;-3.40;99.90
55642;DHT22;41509;53.108;6.100;2024-01-10T09:08:38;-3.30;99.90
55642;DHT22;41509;53.108;6.100;2024-01-10T09:11:05;-3.30;99.90
55642;DHT22;41509;53.108;6.100;2024-01-10T09:13:31;-3.30;99.90
55642;DHT22;41509;53.108;6.100;2024-01-10T09:15:56;-3.20;99.90
55642;DHT22;41509;53.108;6.100;2024-01-10T09:18:22;-3.20;99.90
55642;DHT22;41509;53.108;6.100;2024-01-10T09:20:48;-3.20;99.90
55642;DHT22;41509;53.108;6.100;2024-01-10T09:23:14;-3.10;99.90
55642;DHT22;41509;53.108;6.100;2024-01-10T09:25:39;-3.10;99.90
55642;DHT22;41509;53.108;6.100;2024-01-10T09:28:05;-3.10;99.90
55642;DHT22;41509;53.108;6.100;2024-01-10T09:30:31;-3.00;99.90
55642;DHT22;41509;53.108;6.100;2024-01-10T09:32:56;-2.90;99.90
55642;DHT22;41509;53.108;6.100;2024-01-10T09:35:22;-2.90;99.90
55642;DHT22;41509;53.108;6.100;2024-01-10T09:37:48;-2.80;99.90
55642;DHT22;41509;53.108;6.100;2024-01-10T09:40:15;-2.80;99.90
55642;DHT22;41509;53.108;6.100;2024-01-10T09:42:43;-2.80;99.90
55642;DHT22;41509;53.108;6.100;2024-01-10T09:45:10;-2.70;99.90
55642;DHT22;41509;53.108;6.100;2024-01-10T09:47:37;-2.60;99.90
55642;DHT22;41509;53.108;6.100;2024-01-10T09:50:05;-2.60;99.90
55642;DHT22;41509;53.108;6.100;2024-01-10T09:52:36;-2.50;99.90
55642;DHT22;41509;53.108;6.100;2024-01-10T09:55:05;-2.50;99.90
55642;DHT22;41509;53.108;6.100;2024-01-10T09:57:30;-2.40;99.90
55642;DHT22;41509;53.108;6.100;2024-01-10T09:59:56;-2.30;99.90
55642;DHT22;41509;53.108;6.100;2024-01-10T10:02:23;-2.20;99.90
55642;DHT22;41509;53.108;6.100;2024-01-10T10:05:07;-2.20;99.90
55642;DHT22;41509;53.108;6.100;2024-01-10T10:07:50;-2.20;99.90
55642;DHT22;41509;53.108;6.100;2024-01-10T10:10:17;-2.00;99.90
55642;DHT22;41509;53.108;6.100;2024-01-10T10:12:45;-2.00;99.90
55642;DHT22;41509;53.108;6.100;2024-01-10T10:15:15;-1.90;99.90
55642;DHT22;41509;53.108;6.100;2024-01-10T10:17:43;-1.90;99.90
55642;DHT22;41509;53.108;6.100;2024-01-10T10:20:20;-1.80;99.90
55642;DHT22;41509;53.108;6.100;2024-01-10T10:23:03;-1.70;99.90
55642;DHT22;41509;53.108;6.100;2024-01-10T10:25:38;-1.60;99.90
55642;DHT22;41509;53.108;6.100;2024-01-10T10:28:08;-1.60;99.90
55642;DHT22;41509;53.108;6.100;2024-01-10T10:30:34;-1.50;99.90
55642;DHT22;41509;53.108;6.100;2024-01-10T10:33:03;-1.40;99.90
55642;DHT22;41509;53.108;6.100;2024-01-10T10:35:29;-1.30;99.90
55642;DHT22;41509;53.108;6.100;2024-01-10T10:37:55;-1.30;99.90
55642;DHT22;41509;53.108;6.100;2024-01-10T10:40:21;-1.20;99.90
55642;DHT22;41509;53.108;6.100;2024-01-10T10:42:48;-1.10;99.90
55642;DHT22;41509;53.108;6.100;2024-01-10T10:45:18;-1.10;99.90
55642;DHT22;41509;53.108;6.100;2024-01-10T10:47:47;-1.00;99.90
55642;DHT22;41509;53.108;6.100;2024-01-10T10:50:22;-1.00;99.90
55642;DHT22;41509;53.108;6.100;2024-01-10T10:52:49;-0.90;99.90
55642;DHT22;41509;53.108;6.100;2024-01-10T10:55:16;-0.80;99.90
55642;DHT22;41509;53.108;6.100;2024-01-10T10:57:47;-0.80;99.90
55642;DHT22;41509;53.108;6.100;2024-01-10T11:00:20;-0.80;99.90
55642;DHT22;41509;53.108;6.100;2024-01-10T11:02:53;-0.70;99.90
55642;DHT22;41509;53.108;6.100;2024-01-10T11:05:20;-0.60;99.90
55642;DHT22;41509;53.108;6.100;2024-01-10T11:07:48;-0.60;99.90
55642;DHT22;41509;53.108;6.100;2024-01-10T11:10:21;-0.60;99.90
55642;DHT22;41509;53.108;6.100;2024-01-10T11:23:47;-0.30;99.90
55642;DHT22;41509;53.108;6.100;2024-01-10T11:26:15;-0.20;99.90
55642;DHT22;41509;53.108;6.100;2024-01-10T11:28:42;-0.20;99.90
55642;DHT22;41509;53.108;6.100;2024-01-10T11:31:08;-0.20;99.90
55642;DHT22;41509;53.108;6.100;2024-01-10T11:33:39;-0.10;99.90
55642;DHT22;41509;53.108;6.100;2024-01-10T11:36:07;-0.10;99.90
55642;DHT22;41509;53.108;6.100;2024-01-10T11:41:06;0.00;99.90
55642;DHT22;41509;53.108;6.100;2024-01-10T11:43:34;0.10;99.90
55642;DHT22;41509;53.108;6.100;2024-01-10T11:46:01;0.10;99.90
55642;DHT22;41509;53.108;6.100;2024-01-10T11:48:31;0.10;99.90
55642;DHT22;41509;53.108;6.100;2024-01-10T11:50:59;0.20;99.90
55642;DHT22;41509;53.108;6.100;2024-01-10T11:53:42;0.20;99.90
55642;DHT22;41509;53.108;6.100;2024-01-10T11:56:12;0.30;99.90
55642;DHT22;41509;53.108;6.100;2024-01-10T11:59:10;0.30;99.90
55642;DHT22;41509;53.108;6.100;2024-01-10T12:01:37;0.40;99.90
55642;DHT22;41509;53.108;6.100;2024-01-10T12:04:04;0.40;99.90
55642;DHT22;41509;53.108;6.100;2024-01-10T12:06:35;0.50;99.90
55642;DHT22;41509;53.108;6.100;2024-01-10T12:09:02;0.50;99.90
55642;DHT22;41509;53.108;6.100;2024-01-10T12:11:36;0.50;99.90
55642;DHT22;41509;53.108;6.100;2024-01-10T12:14:04;0.50;99.90
55642;DHT22;41509;53.108;6.100;2024-01-10T12:16:32;0.60;99.90
55642;DHT22;41509;53.108;6.100;2024-01-10T12:18:58;0.60;99.90
55642;DHT22;41509;53.108;6.100;2024-01-10T12:21:23;0.70;99.90
55642;DHT22;41509;53.108;6.100;2024-01-10T12:23:50;0.80;99.90
55642;DHT22;41509;53.108;6.100;2024-01-10T12:26:17;0.80;99.90
55642;DHT22;41509;53.108;6.100;2024-01-10T12:28:57;0.80;99.90
55642;DHT22;41509;53.108;6.100;2024-01-10T12:31:27;0.90;99.90
55642;DHT22;41509;53.108;6.100;2024-01-10T12:33:54;0.90;99.90
55642;DHT22;41509;53.108;6.100;2024-01-10T12:36:20;0.90;99.90
55642;DHT22;41509;53.108;6.100;2024-01-10T12:38:47;0.90;99.90
55642;DHT22;41509;53.108;6.100;2024-01-10T12:41:15;0.90;99.90
55642;DHT22;41509;53.108;6.100;2024-01-10T12:43:41;1.00;99.90
55642;DHT22;41509;53.108;6.100;2024-01-10T12:46:07;1.00;99.90
55642;DHT22;41509;53.108;6.100;2024-01-10T12:48:34;1.10;99.90
55642;DHT22;41509;53.108;6.100;2024-01-10T12:51:06;1.00;99.90
55642;DHT22;41509;53.108;6.100;2024-01-10T12:53:34;1.00;99.90
55642;DHT22;41509;53.108;6.100;2024-01-10T12:56:00;1.00;99.90
55642;DHT22;41509;53.108;6.100;2024-01-10T12:58:27;1.00;99.90
55642;DHT22;41509;53.108;6.100;2024-01-10T13:00:52;1.10;99.90
55642;DHT22;41509;53.108;6.100;2024-01-10T13:03:18;1.10;99.90
55642;DHT22;41509;53.108;6.100;2024-01-10T13:05:44;1.10;99.90
55642;DHT22;41509;53.108;6.100;2024-01-10T13:08:09;1.10;99.90
55642;DHT22;41509;53.108;6.100;2024-01-10T13:10:37;1.10;99.90
55642;DHT22;41509;53.108;6.100;2024-01-10T13:13:03;1.00;99.90
55642;DHT22;41509;53.108;6.100;2024-01-10T13:15:29;1.00;99.90
55642;DHT22;41509;53.108;6.100;2024-01-10T13:17:55;1.00;99.90
55642;DHT22;41509;53.108;6.100;2024-01-10T13:20:21;0.90;99.90
55642;DHT22;41509;53.108;6.100;2024-01-10T13:22:46;0.90;99.90
55642;DHT22;41509;53.108;6.100;2024-01-10T13:25:12;0.90;99.90
55642;DHT22;41509;53.108;6.100;2024-01-10T13:27:38;0.90;99.90
55642;DHT22;41509;53.108;6.100;2024-01-10T13:30:04;0.80;99.90
55642;DHT22;41509;53.108;6.100;2024-01-10T13:32:31;0.80;99.90
55642;DHT22;41509;53.108;6.100;2024-01-10T13:34:56;0.70;99.90
55642;DHT22;41509;53.108;6.100;2024-01-10T13:37:22;0.70;99.90
55642;DHT22;41509;53.108;6.100;2024-01-10T13:39:48;0.70;99.90
55642;DHT22;41509;53.108;6.100;2024-01-10T13:42:14;0.70;99.90
55642;DHT22;41509;53.108;6.100;2024-01-10T13:44:40;0.60;99.90
55642;DHT22;41509;53.108;6.100;2024-01-10T13:47:06;0.60;99.90
55642;DHT22;41509;53.108;6.100;2024-01-10T13:49:32;0.50;99.90
55642;DHT22;41509;53.108;6.100;2024-01-10T13:51:57;0.50;99.90
55642;DHT22;41509;53.108;6.100;2024-01-10T13:54:23;0.50;99.90
55642;DHT22;41509;53.108;6.100;2024-01-10T13:56:48;0.60;99.90
55642;DHT22;41509;53.108;6.100;2024-01-10T13:59:14;0.50;99.90
55642;DHT22;41509;53.108;6.100;2024-01-10T14:01:40;0.50;99.90
55642;DHT22;41509;53.108;6.100;2024-01-10T14:04:06;0.40;99.90
55642;DHT22;41509;53.108;6.100;2024-01-10T14:06:31;0.40;99.90
55642;DHT22;41509;53.108;6.100;2024-01-10T14:08:57;0.40;99.90
55642;DHT22;41509;53.108;6.100;2024-01-10T14:11:23;0.40;99.90
55642;DHT22;41509;53.108;6.100;2024-01-10T14:13:49;0.30;99.90
55642;DHT22;41509;53.108;6.100;2024-01-10T14:16:17;0.30;99.90
55642;DHT22;41509;53.108;6.100;2024-01-10T14:18:43;0.30;99.90
55642;DHT22;41509;53.108;6.100;2024-01-10T14:21:09;0.30;99.90
55642;DHT22;41509;53.108;6.100;2024-01-10T14:23:34;0.20;99.90
55642;DHT22;41509;53.108;6.100;2024-01-10T14:26:00;0.20;99.90
55642;DHT22;41509;53.108;6.100;2024-01-10T14:28:26;0.10;99.90
55642;DHT22;41509;53.108;6.100;2024-01-10T14:30:52;0.10;99.90
55642;DHT22;41509;53.108;6.100;2024-01-10T14:33:18;0.00;99.90
55642;DHT22;41509;53.108;6.100;2024-01-10T14:35:44;0.00;99.90
55642;DHT22;41509;53.108;6.100;2024-01-10T14:38:10;-0.10;99.90
55642;DHT22;41509;53.108;6.100;2024-01-10T14:40:36;-0.10;99.90
55642;DHT22;41509;53.108;6.100;2024-01-10T14:43:03;-0.20;99.90
55642;DHT22;41509;53.108;6.100;2024-01-10T14:45:29;-0.20;99.90
55642;DHT22;41509;53.108;6.100;2024-01-10T14:47:55;-0.30;99.90
55642;DHT22;41509;53.108;6.100;2024-01-10T14:50:21;-0.30;99.90
55642;DHT22;41509;53.108;6.100;2024-01-10T14:52:49;-0.40;99.90
55642;DHT22;41509;53.108;6.100;2024-01-10T14:55:16;-0.40;99.90
55642;DHT22;41509;53.108;6.100;2024-01-10T14:57:42;-0.40;99.90
55642;DHT22;41509;53.108;6.100;2024-01-10T15:00:08;-0.50;99.90
55642;DHT22;41509;53.108;6.100;2024-01-10T15:02:36;-0.60;99.90
55642;DHT22;41509;53.108;6.100;2024-01-10T15:05:02;-0.60;99.90
55642;DHT22;41509;53.108;6.100;2024-01-10T15:07:28;-0.60;99.90
55642;DHT22;41509;53.108;6.100;2024-01-10T15:09:54;-0.70;99.90
55642;DHT22;41509;53.108;6.100;2024-01-10T15:12:20;-0.70;99.90
55642;DHT22;41509;53.108;6.100;2024-01-10T15:14:49;-0.80;99.90
55642;DHT22;41509;53.108;6.100;2024-01-10T15:17:15;-0.80;99.90
55642;DHT22;41509;53.108;6.100;2024-01-10T15:19:41;-0.90;99.90
55642;DHT22;41509;53.108;6.100;2024-01-10T15:22:10;-0.90;99.90
55642;DHT22;41509;53.108;6.100;2024-01-10T15:24:36;-0.90;99.90
55642;DHT22;41509;53.108;6.100;2024-01-10T15:27:02;-1.00;99.90
55642;DHT22;41509;53.108;6.100;2024-01-10T15:29:34;-1.00;99.90
55642;DHT22;41509;53.108;6.100;2024-01-10T15:32:00;-1.00;99.90
55642;DHT22;41509;53.108;6.100;2024-01-10T15:34:26;-1.10;99.90
55642;DHT22;41509;53.108;6.100;2024-01-10T15:36:52;-1.10;99.90
55642;DHT22;41509;53.108;6.100;2024-01-10T15:39:18;-1.20;99.90
55642;DHT22;41509;53.108;6.100;2024-01-10T15:41:49;-1.20;99.90
55642;DHT22;41509;53.108;6.100;2024-01-10T15:44:16;-1.20;99.90